Time;durP1;ratioP1;P1;durP2;ratioP2;P2;SDS_P1;SDS_P2;PMS_P1;PMS_P2;Temp;Humidity;BMP_temperature;BMP_pressure;BME280_temperature;BME280_humidity;BME280_pressure;Samples;Min_cycle;Max_cycle;Signal;HPM_P1;HPM_P2
2023/06/27 00:01:45;;;;;;;9.07;4.53;;;;;;;18.80;87.43;99211.47;4983994;28;20133;-92
2023/06/27 00:04:13;;;;;;;11.13;4.57;;;;;;;18.78;87.24;99218.06;4985230;28;20029;-91
2023/06/27 00:06:41;;;;;;;7.00;4.63;;;;;;;18.83;86.95;99219.00;5000559;28;20112;-92
2023/06/27 00:09:11;;;;;;;9.27;3.75;;;;;;;18.83;86.75;99219.00;5016215;28;20034;-91
2023/06/27 00:11:37;;;;;;;9.48;3.55;;;;;;;18.81;86.33;99207.63;5017759;28;20144;-91
2023/06/27 00:14:04;;;;;;;9.43;3.70;;;;;;;18.76;86.22;99209.38;5017038;28;20037;-91
2023/06/27 00:16:34;;;;;;;9.73;3.60;;;;;;;18.74;86.32;99202.66;4984857;28;20061;-91
2023/06/27 00:19:02;;;;;;;10.85;3.80;;;;;;;18.73;86.41;99203.75;4985558;28;20038;-91
2023/06/27 00:21:28;;;;;;;4.53;3.47;;;;;;;18.72;86.25;99196.72;5001281;28;20102;-92
2023/06/27 00:23:56;;;;;;;7.22;3.60;;;;;;;18.74;86.29;99197.97;4995969;28;20034;-91
2023/06/27 00:26:22;;;;;;;9.55;3.75;;;;;;;18.69;86.41;99200.88;4981120;28;20037;-92
2023/06/27 00:28:48;;;;;;;10.80;4.47;;;;;;;18.56;87.81;99208.16;5008837;28;20049;-92
2023/06/27 00:31:16;;;;;;;5.15;4.35;;;;;;;18.53;88.23;99208.81;5017505;28;20022;-93
2023/06/27 00:33:42;;;;;;;11.70;5.05;;;;;;;18.41;88.32;99196.94;5017793;28;20564;-92
2023/06/27 00:36:07;;;;;;;6.03;4.90;;;;;;;18.38;87.73;99199.19;4984837;28;20021;-91
2023/06/27 00:38:35;;;;;;;12.98;4.97;;;;;;;18.38;87.18;99201.13;4983993;28;20018;-92
2023/06/27 00:41:00;;;;;;;10.00;4.72;;;;;;;18.35;86.93;99185.44;5016104;28;20436;-91
2023/06/27 00:43:29;;;;;;;9.10;5.00;;;;;;;18.35;87.76;99202.59;4981857;28;20080;-91
2023/06/27 00:45:56;;;;;;;12.48;5.15;;;;;;;18.31;87.98;99198.91;4993154;28;20050;-91
2023/06/27 00:48:22;;;;;;;5.95;3.90;;;;;;;18.36;86.94;99193.31;5012125;28;20038;-91
2023/06/27 00:50:54;;;;;;;6.40;4.60;;;;;;;18.30;88.00;99199.22;4991779;28;20053;-91
2023/06/27 00:53:20;;;;;;;;;;;;;;;18.37;87.39;99199.53;5005551;28;20040;-92
2023/06/27 00:55:46;;;;;;;9.10;4.82;;;;;;;18.34;87.07;99187.38;4999331;28;20015;-91
2023/06/27 00:58:12;;;;;;;9.40;4.03;;;;;;;18.35;86.90;99194.41;5001071;28;20040;-91
2023/06/27 01:00:38;;;;;;;8.65;4.40;;;;;;;18.36;86.45;99190.56;4983920;28;20125;-92
2023/06/27 01:03:03;;;;;;;7.93;3.67;;;;;;;18.40;86.12;99195.38;4982346;28;20026;-92
2023/06/27 01:05:29;;;;;;;10.52;3.75;;;;;;;18.46;85.54;99194.84;4968216;28;20503;-91
2023/06/27 01:08:23;;;;;;;8.48;3.53;;;;;;;18.50;85.10;99200.47;4982747;28;20029;-92
2023/06/27 01:10:53;;;;;;;5.25;3.15;;;;;;;18.51;84.75;99194.69;4964096;28;20157;-92
2023/06/27 01:13:30;;;;;;;4.85;3.00;;;;;;;18.39;84.43;99183.66;4981334;28;20104;-92
2023/06/27 01:15:57;;;;;;;6.65;3.22;;;;;;;18.52;83.69;99198.22;4986644;28;20097;-92
2023/06/27 01:18:23;;;;;;;8.63;3.00;;;;;;;18.50;83.32;99195.00;5002489;28;20030;-91
2023/06/27 01:20:49;;;;;;;5.15;2.90;;;;;;;18.47;83.61;99195.66;4987858;28;20048;-91
2023/06/27 01:23:39;;;;;;;5.93;2.70;;;;;;;18.50;83.65;99200.47;5003663;28;20033;-92
2023/06/27 01:26:07;;;;;;;8.63;3.10;;;;;;;18.44;84.11;99196.31;4999728;28;20045;-92
2023/06/27 01:28:32;;;;;;;8.93;3.08;;;;;;;18.44;83.72;99190.88;5003682;28;20029;-91
2023/06/27 01:31:01;;;;;;;6.93;2.92;;;;;;;18.47;83.51;99199.19;4986796;28;20021;-92
2023/06/27 01:33:41;;;;;;;6.45;2.92;;;;;;;18.30;84.35;99193.78;5001296;28;20083;-91
2023/06/27 01:36:17;;;;;;;8.77;3.10;;;;;;;18.32;84.88;99197.81;4966093;28;20033;-92
2023/06/27 01:39:08;;;;;;;6.88;3.17;;;;;;;18.34;85.02;99192.00;4988654;28;20051;-92
2023/06/27 01:41:36;;;;;;;9.02;3.58;;;;;;;18.31;84.97;99189.94;4980454;28;20045;-91
2023/06/27 01:44:02;;;;;;;6.45;3.15;;;;;;;18.17;85.81;99188.19;4948167;28;20137;-92
2023/06/27 01:46:28;;;;;;;6.20;3.67;;;;;;;18.21;85.17;99190.28;4981189;28;20023;-92
2023/06/27 01:48:54;;;;;;;9.65;3.60;;;;;;;18.20;84.85;99184.03;4980184;28;20030;-92
2023/06/27 01:51:20;;;;;;;8.50;4.45;;;;;;;18.24;85.43;99195.91;4989562;28;20037;-92
2023/06/27 01:53:47;;;;;;;5.05;3.20;;;;;;;18.19;85.65;99190.59;5014867;28;20036;-92
2023/06/27 01:56:13;;;;;;;8.98;4.32;;;;;;;18.12;86.06;99190.31;4999582;28;20048;-92
2023/06/27 01:58:41;;;;;;;8.00;3.33;;;;;;;18.10;86.07;99185.16;5015565;28;20029;-92
2023/06/27 02:01:08;;;;;;;7.88;3.63;;;;;;;18.10;86.11;99185.16;4999886;28;20026;-92
2023/06/27 02:03:34;;;;;;;11.45;3.83;;;;;;;18.08;85.72;99187.41;4983459;28;20029;-92
2023/06/27 02:06:01;;;;;;;10.65;3.63;;;;;;;18.01;85.70;99178.13;4997510;28;20030;-91
2023/06/27 02:08:29;;;;;;;5.20;3.30;;;;;;;17.93;86.53;99185.19;4998364;28;20477;-92
2023/06/27 02:10:55;;;;;;;6.43;3.25;;;;;;;17.92;86.55;99189.81;5010203;28;20113;-93
2023/06/27 02:13:22;;;;;;;7.70;3.50;;;;;;;17.85;86.90;99178.63;5016646;28;20030;-92
2023/06/27 02:15:48;;;;;;;4.63;3.70;;;;;;;17.87;86.80;99179.09;5019462;28;20013;-92
2023/06/27 02:18:15;;;;;;;14.98;4.00;;;;;;;17.85;86.99;99186.00;5019133;28;20025;-92
2023/06/27 02:20:40;;;;;;;6.15;3.20;;;;;;;17.87;86.46;99187.28;5019955;28;20033;-91
2023/06/27 02:23:07;;;;;;;6.70;4.20;;;;;;;17.86;86.74;99180.22;5019006;28;20029;-92
2023/06/27 02:25:33;;;;;;;5.82;3.47;;;;;;;17.84;86.93;99178.94;5019933;28;20042;-92
2023/06/27 02:27:59;;;;;;;9.70;3.42;;;;;;;17.89;86.28;99187.75;5003514;28;20507;-92
2023/06/27 02:30:25;;;;;;;5.80;3.13;;;;;;;17.92;85.87;99194.47;5019016;28;20041;-92
2023/06/27 02:32:51;;;;;;;8.07;3.50;;;;;;;17.97;86.04;99197.84;5002736;28;20057;-92
2023/06/27 02:35:16;;;;;;;5.40;3.25;;;;;;;18.05;85.44;99200.88;5035172;28;20029;-90
2023/06/27 02:37:43;;;;;;;8.27;3.58;;;;;;;18.06;85.58;99199.75;5019182;28;20042;-92
2023/06/27 02:40:09;;;;;;;10.30;3.65;;;;;;;18.05;85.07;99192.69;5003697;28;20511;-92
2023/06/27 02:42:35;;;;;;;8.25;3.70;;;;;;;18.07;85.51;99209.53;5002919;28;20033;-92
2023/06/27 02:45:01;;;;;;;7.45;3.22;;;;;;;18.11;85.02;99208.56;5020662;28;20075;-92
2023/06/27 02:47:26;;;;;;;6.40;3.65;;;;;;;18.06;84.70;99203.28;4971033;28;20056;-92
2023/06/27 02:49:52;;;;;;;5.40;3.28;;;;;;;18.13;85.22;99216.41;4969222;28;20408;-92
2023/06/27 02:52:19;;;;;;;7.38;3.60;;;;;;;18.00;86.49;99214.69;4969807;28;20550;-92
2023/06/27 02:54:44;;;;;;;12.02;3.70;;;;;;;17.81;87.12;99207.59;4969793;28;20026;-91
2023/06/27 02:57:10;;;;;;;5.15;3.70;;;;;;;17.82;87.31;99202.94;4987382;28;20061;-92
2023/06/27 02:59:36;;;;;;;8.63;3.83;;;;;;;17.83;87.10;99210.03;4987930;28;20026;-92
2023/06/27 03:02:03;;;;;;;5.78;3.38;;;;;;;17.84;87.62;99217.06;5001562;28;20455;-92
2023/06/27 03:04:29;;;;;;;9.20;4.28;;;;;;;17.66;88.09;99214.31;5001541;28;20455;-92
2023/06/27 03:06:54;;;;;;;8.13;4.25;;;;;;;17.70;88.47;99215.28;4985965;28;20034;-92
2023/06/27 03:09:20;;;;;;;9.80;4.22;;;;;;;17.69;88.24;99218.31;4967945;28;20030;-92
2023/06/27 03:11:47;;;;;;;8.57;4.10;;;;;;;17.70;88.44;99209.84;4965897;28;20024;-92
2023/06/27 03:14:17;;;;;;;6.40;4.57;;;;;;;17.65;88.40;99204.53;4966815;28;20026;-92
2023/06/27 03:16:43;;;;;;;8.32;3.80;;;;;;;17.62;88.56;99209.81;4952077;28;20034;-94
2023/06/27 03:19:08;;;;;;;11.18;3.75;;;;;;;17.57;88.21;99210.78;4966516;28;20092;-93
2023/06/27 03:21:36;;;;;;;6.20;4.10;;;;;;;17.55;87.92;99207.56;5016522;28;20124;-93
2023/06/27 03:24:02;;;;;;;4.97;3.90;;;;;;;17.71;87.38;99210.63;4993797;28;20030;-93
2023/06/27 03:26:28;;;;;;;6.40;3.75;;;;;;;17.82;86.71;99214.63;4982075;28;20042;-93
2023/06/27 03:28:55;;;;;;;7.85;4.13;;;;;;;17.82;86.56;99214.63;4966828;28;20080;-93
2023/06/27 03:31:21;;;;;;;8.15;4.18;;;;;;;17.68;87.66;99206.63;4982235;28;20030;-93
2023/06/27 03:33:47;;;;;;;15.35;4.88;;;;;;;17.63;88.98;99217.69;4950170;28;20030;-93
2023/06/27 03:36:13;;;;;;;7.72;4.07;;;;;;;17.52;89.74;99214.47;5000801;28;20034;-92
2023/06/27 03:38:38;;;;;;;9.25;4.50;;;;;;;17.56;88.77;99220.09;4985564;28;20044;-92
2023/06/27 03:41:05;;;;;;;10.07;4.40;;;;;;;17.58;88.99;99226.00;4969796;28;20026;-94
2023/06/27 03:43:30;;;;;;;8.93;3.63;;;;;;;17.55;89.47;99227.44;4985245;28;20049;-95
2023/06/27 03:45:56;;;;;;;9.02;4.20;;;;;;;17.58;89.00;99223.28;4990930;28;20509;-94
2023/06/27 03:48:22;;;;;;;9.95;3.55;;;;;;;17.59;89.49;99227.59;4991539;28;20026;-94
2023/06/27 03:50:48;;;;;;;8.18;4.13;;;;;;;17.60;89.43;99225.66;5001019;28;20381;-94
2023/06/27 03:53:15;;;;;;;12.57;4.40;;;;;;;17.63;89.01;99230.50;4981186;28;20479;-95
2023/06/27 03:55:40;;;;;;;5.65;3.35;;;;;;;17.77;86.95;99233.88;5019276;28;20381;-94
2023/06/27 03:58:07;;;;;;;5.78;3.33;;;;;;;18.01;84.79;99238.84;4985378;28;20021;-94
2023/06/27 04:00:33;;;;;;;6.93;3.28;;;;;;;18.03;84.71;99230.38;5000679;28;20100;-93
2023/06/27 04:02:59;;;;;;;5.80;3.05;;;;;;;18.12;82.48;99223.78;5012101;28;20026;-94
2023/06/27 04:05:24;;;;;;;11.15;3.55;;;;;;;18.17;82.33;99225.53;4989851;28;20042;-94
2023/06/27 04:07:51;;;;;;;7.70;3.05;;;;;;;18.30;81.89;99221.84;5002348;28;20526;-93
2023/06/27 04:10:18;;;;;;;4.18;2.60;;;;;;;18.38;81.29;99231.13;5014793;28;20021;-93
2023/06/27 04:12:44;;;;;;;5.28;2.80;;;;;;;18.47;80.91;99225.66;4985921;28;20034;-94
2023/06/27 04:15:10;;;;;;;3.63;2.50;;;;;;;18.47;80.37;99215.56;5000910;28;20478;-94
2023/06/27 04:17:35;;;;;;;8.57;5.28;;;;;;;18.44;80.76;99227.09;4985136;28;20030;-94
2023/06/27 04:20:03;;;;;;;13.45;4.03;;;;;;;18.41;81.71;99235.13;4985632;28;20029;-95
2023/06/27 04:22:28;;;;;;;5.28;3.30;;;;;;;18.24;82.47;99230.50;5019767;28;20096;-94
2023/06/27 04:24:56;;;;;;;5.60;3.28;;;;;;;18.26;82.87;99237.25;5002011;28;20010;-93
2023/06/27 04:27:22;;;;;;;9.23;3.67;;;;;;;18.25;83.36;99232.91;5001308;28;20121;-93
2023/06/27 04:29:48;;;;;;;7.65;3.30;;;;;;;18.26;84.02;99233.69;4986057;28;20041;-94
2023/06/27 04:32:13;;;;;;;5.70;3.25;;;;;;;18.29;83.99;99236.59;4984659;28;20077;-92
2023/06/27 04:34:40;;;;;;;5.82;3.58;;;;;;;18.27;84.42;99233.38;5001311;28;20373;-93
2023/06/27 04:37:05;;;;;;;6.90;3.45;;;;;;;18.29;84.37;99222.16;5019247;28;20025;-93
2023/06/27 04:39:31;;;;;;;8.45;4.15;;;;;;;18.44;83.63;99226.31;4986079;28;20432;-93
2023/06/27 04:41:57;;;;;;;9.98;3.38;;;;;;;18.43;82.74;99230.16;5000746;28;20060;-94
2023/06/27 04:44:23;;;;;;;5.38;3.30;;;;;;;18.52;83.14;99231.72;4985256;28;20499;-90
2023/06/27 04:46:50;;;;;;;7.20;3.35;;;;;;;18.60;82.66;99219.22;5015723;28;20026;-87
2023/06/27 04:49:17;;;;;;;9.73;2.95;;;;;;;18.64;81.19;99219.38;5000749;28;20022;-86
2023/06/27 04:51:45;;;;;;;8.65;3.80;;;;;;;18.74;81.20;99230.72;5016092;28;20030;-88
2023/06/27 04:54:11;;;;;;;7.50;3.60;;;;;;;18.89;80.76;99240.31;4999106;28;20025;-88
2023/06/27 04:56:38;;;;;;;9.43;3.70;;;;;;;18.91;80.25;99232.59;4997862;28;20057;-89
2023/06/27 04:59:04;;;;;;;8.82;3.80;;;;;;;18.89;78.98;99234.06;4996712;28;20045;-89
2023/06/27 05:01:32;;;;;;;5.22;2.95;;;;;;;19.01;78.85;99233.34;5015434;28;20091;-89
2023/06/27 05:04:04;;;;;;;6.15;3.55;;;;;;;19.10;77.60;99239.59;4983205;28;20028;-89
2023/06/27 05:06:34;;;;;;;10.45;4.50;;;;;;;19.09;78.47;99224.31;4998899;28;20079;-90
2023/06/27 05:09:03;;;;;;;6.43;3.35;;;;;;;19.30;76.91;99233.38;5001009;28;20391;-89
2023/06/27 05:11:43;;;;;;;7.13;3.28;;;;;;;19.35;77.53;99248.75;4996213;28;20029;-91
2023/06/27 05:14:14;;;;;;;12.55;3.22;;;;;;;19.21;77.56;99209.97;5020485;28;20052;-92
2023/06/27 05:16:40;;;;;;;7.82;2.75;;;;;;;19.37;78.16;99235.59;4985287;28;20033;-89
2023/06/27 05:19:06;;;;;;;10.20;3.47;;;;;;;19.44;76.18;99238.56;4999534;28;20045;-89
2023/06/27 05:21:32;;;;;;;7.05;3.25;;;;;;;19.47;76.57;99246.13;5015997;28;20045;-90
2023/06/27 05:24:00;;;;;;;13.23;3.53;;;;;;;19.50;75.83;99253.63;5002332;28;20128;-91
2023/06/27 05:26:26;;;;;;;4.35;3.33;;;;;;;19.53;75.36;99241.28;5000590;28;20488;-89
2023/06/27 05:28:51;;;;;;;7.95;3.03;;;;;;;19.65;76.50;99240.53;5016237;28;20092;-88
2023/06/27 05:31:20;;;;;;;4.97;3.40;;;;;;;19.64;76.35;99242.47;5000553;28;20088;-89
2023/06/27 05:33:46;;;;;;;11.00;3.47;;;;;;;19.72;76.35;99243.59;4983565;28;20052;-89
2023/06/27 05:36:12;;;;;;;8.13;3.05;;;;;;;19.75;74.60;99240.19;4983183;28;20022;-89
2023/06/27 05:38:38;;;;;;;5.35;3.58;;;;;;;19.82;73.15;99243.19;5006657;28;20448;-92
2023/06/27 05:41:03;;;;;;;8.80;3.50;;;;;;;20.02;73.51;99248.97;4993277;28;20084;-91
2023/06/27 05:43:29;;;;;;;7.53;4.30;;;;;;;20.06;73.37;99253.44;4989473;28;20035;-92
2023/06/27 05:45:57;;;;;;;9.50;5.82;;;;;;;20.18;72.96;99236.28;4979305;28;20054;-95
2023/06/27 05:48:26;;;;;;;8.68;5.28;;;;;;;20.16;74.56;99220.22;4981085;28;20065;-89
2023/06/27 05:50:51;;;;;;;8.15;4.38;;;;;;;20.37;74.35;99242.03;5007397;28;20021;-93
2023/06/27 05:53:17;;;;;;;12.02;8.93;;;;;;;20.37;74.01;99230.31;5002321;28;20034;-92
2023/06/27 05:55:43;;;;;;;14.38;6.22;;;;;;;20.48;72.62;99231.50;5011686;28;20029;-95
2023/06/27 05:58:11;;;;;;;11.10;5.15;;;;;;;20.51;72.54;99235.47;5011889;28;20040;-92
2023/06/27 06:00:39;;;;;;;9.57;4.40;;;;;;;20.62;72.19;99228.47;4987890;28;20026;-96
2023/06/27 06:03:04;;;;;;;13.52;7.18;;;;;;;20.64;72.63;99222.66;4990293;28;20015;-95
2023/06/27 06:05:33;;;;;;;8.18;5.97;;;;;;;20.70;72.31;99227.56;4985948;28;20057;-90
2023/06/27 06:08:12;;;;;;;10.95;6.20;;;;;;;20.83;71.76;99227.59;5001118;28;20026;-91
2023/06/27 06:10:38;;;;;;;9.98;6.30;;;;;;;21.06;70.95;99227.94;5019821;28;20014;-91
2023/06/27 06:13:04;;;;;;;14.68;5.50;;;;;;;21.12;71.95;99229.31;5002018;28;20037;-90
2023/06/27 06:15:30;;;;;;;11.80;5.22;;;;;;;21.19;70.38;99229.53;5001037;28;20037;-90
2023/06/27 06:18:05;;;;;;;10.75;5.30;;;;;;;21.22;69.44;99220.63;4986794;28;20034;-90
2023/06/27 06:20:56;;;;;;;10.35;5.93;;;;;;;21.38;68.48;99243.44;4999232;28;20030;-92
2023/06/27 06:23:23;;;;;;;6.28;4.50;;;;;;;21.58;70.39;99239.00;5011092;28;20030;-90
2023/06/27 06:25:49;;;;;;;8.35;5.40;;;;;;;21.65;70.29;99223.91;5019625;28;20034;-93
2023/06/27 06:28:16;;;;;;;8.55;5.13;;;;;;;21.83;68.98;99225.25;5003353;28;20461;-92
2023/06/27 06:30:41;;;;;;;9.20;5.13;;;;;;;21.98;67.95;99226.44;4988114;28;20094;-93
2023/06/27 06:33:10;;;;;;;15.15;5.60;;;;;;;22.07;66.69;99226.28;4998566;28;20095;-92
2023/06/27 06:35:36;;;;;;;19.33;5.25;;;;;;;22.25;67.30;99216.66;5005195;28;20448;-91
2023/06/27 06:38:11;;;;;;;10.45;5.32;;;;;;;22.46;66.74;99210.94;5002116;28;20084;-94
2023/06/27 06:40:39;;;;;;;5.68;4.40;;;;;;;22.68;66.11;99237.00;5000245;28;20037;-91
2023/06/27 06:43:27;;;;;;;9.18;4.40;;;;;;;22.86;65.25;99231.16;4998229;28;20029;-93
2023/06/27 06:45:58;;;;;;;17.30;7.53;;;;;;;22.83;64.39;99201.63;5020020;28;20049;-91
2023/06/27 06:49:09;;;;;;;18.02;8.18;;;;;;;23.03;64.83;99217.06;4989304;28;20040;-91
2023/06/27 06:54:54;;;;;;;5.47;3.67;;;;;;;23.08;63.79;99191.31;5023357;28;20451;-93
2023/06/27 06:57:20;;;;;;;124.50;79.53;;;;;;;23.28;62.83;99214.13;5007471;28;20463;-92
2023/06/27 06:59:46;;;;;;;14.23;6.68;;;;;;;23.38;62.71;99210.81;5004384;28;20033;-92
2023/06/27 07:02:12;;;;;;;12.32;6.55;;;;;;;23.61;62.57;99208.19;5018867;28;20069;-90
2023/06/27 07:04:38;;;;;;;8.95;5.35;;;;;;;23.85;61.23;99212.66;4984396;28;20026;-91
2023/06/27 07:07:06;;;;;;;6.32;3.55;;;;;;;23.95;60.92;99211.28;5002129;28;20022;-88
2023/06/27 07:09:32;;;;;;;8.57;3.50;;;;;;;24.04;59.83;99209.09;5017983;28;20010;-89
2023/06/27 07:12:01;;;;;;;6.50;3.58;;;;;;;24.25;60.07;99222.47;4989791;28;20064;-93
2023/06/27 07:14:55;;;;;;;8.25;3.88;;;;;;;24.30;59.56;99207.59;5009262;28;20395;-92
2023/06/27 07:17:21;;;;;;;9.93;3.88;;;;;;;24.23;59.09;99188.22;4988369;28;20157;-92
2023/06/27 07:19:48;;;;;;;7.72;4.07;;;;;;;24.35;58.61;99196.31;4999980;28;20058;-91
2023/06/27 07:22:14;;;;;;;10.02;4.10;;;;;;;24.48;57.89;99199.69;4955641;28;20497;-91
2023/06/27 07:24:41;;;;;;;9.75;3.50;;;;;;;24.59;56.04;99204.25;4969745;28;20034;-92
2023/06/27 07:27:07;;;;;;;9.82;3.40;;;;;;;24.45;56.22;99192.97;4967481;28;20038;-91
2023/06/27 07:29:37;;;;;;;5.55;3.90;;;;;;;24.60;55.95;99202.28;4955749;28;20093;-93
2023/06/27 07:32:09;;;;;;;6.30;3.67;;;;;;;24.74;55.22;99201.75;4989820;28;20097;-91
2023/06/27 07:34:39;;;;;;;17.50;12.15;;;;;;;24.67;55.60;99182.34;4968695;28;20039;-92
2023/06/27 07:37:07;;;;;;;7.78;5.07;;;;;;;24.80;56.24;99178.25;4972414;28;20038;-89
2023/06/27 07:39:34;;;;;;;9.30;4.05;;;;;;;25.04;56.20;99198.28;4986638;28;20053;-90
2023/06/27 07:42:00;;;;;;;7.70;4.57;;;;;;;24.88;56.62;99176.38;4985532;28;20113;-92
2023/06/27 07:44:25;;;;;;;5.88;3.60;;;;;;;25.14;55.28;99206.69;4985122;28;20085;-91
2023/06/27 07:46:51;;;;;;;7.63;4.30;;;;;;;25.24;56.37;99193.50;4969898;28;20030;-90
2023/06/27 07:49:17;;;;;;;6.18;3.83;;;;;;;25.22;55.50;99190.31;5000830;28;20048;-94
2023/06/27 07:51:45;;;;;;;8.45;4.50;;;;;;;25.31;55.06;99182.56;5007634;28;20041;-91
2023/06/27 07:54:11;;;;;;;7.97;4.22;;;;;;;25.31;55.73;99190.84;5005188;28;20034;-90
2023/06/27 07:56:40;;;;;;;5.70;3.72;;;;;;;25.35;56.48;99192.47;4993533;28;20049;-93
2023/06/27 07:59:07;;;;;;;8.60;4.38;;;;;;;25.40;55.17;99172.88;4983367;28;20034;-92
2023/06/27 08:01:33;;;;;;;13.25;4.35;;;;;;;25.65;55.16;99199.16;5006220;28;20034;-92
2023/06/27 08:04:04;;;;;;;12.25;5.18;;;;;;;25.75;54.54;99201.25;5007847;28;20393;-92
2023/06/27 08:06:29;;;;;;;6.82;3.90;;;;;;;25.55;53.70;99182.13;5007816;28;20038;-92
2023/06/27 08:09:01;;;;;;;7.60;4.00;;;;;;;25.54;52.63;99191.53;4992506;28;20044;-91
2023/06/27 08:18:19;;;;;;;8.90;3.80;;;;;;;25.54;53.47;99174.22;4902851;29;20044;-93
2023/06/27 08:20:45;;;;;;;12.30;4.22;;;;;;;25.60;54.11;99175.47;4982732;28;20412;-92
2023/06/27 08:23:11;;;;;;;9.90;4.38;;;;;;;25.65;53.43;99169.63;4985982;28;20040;-89
2023/06/27 08:25:39;;;;;;;7.85;4.15;;;;;;;25.78;52.06;99181.22;4991436;28;20018;-91
2023/06/27 08:28:04;;;;;;;7.70;4.07;;;;;;;25.76;52.96;99161.50;4986020;28;20495;-94
2023/06/27 08:30:31;;;;;;;5.80;4.00;;;;;;;25.98;52.02;99193.72;4987199;28;20029;-92
2023/06/27 08:32:56;;;;;;;7.40;5.18;;;;;;;26.01;52.77;99181.13;4982022;28;20544;-92
2023/06/27 08:35:22;;;;;;;7.15;3.53;;;;;;;25.98;51.50;99157.84;4986990;28;20143;-88
2023/06/27 08:37:51;;;;;;;7.72;4.70;;;;;;;26.15;52.00;99173.00;4998090;28;20018;-91
2023/06/27 08:40:26;;;;;;;9.68;4.68;;;;;;;26.40;50.83;99178.75;4982868;28;20042;-92
2023/06/27 08:43:25;;;;;;;11.23;4.78;;;;;;;26.61;50.67;99178.19;5002071;28;20508;-90
2023/06/27 08:45:54;;;;;;;11.35;3.70;;;;;;;26.78;49.90;99170.44;5013102;28;20060;-90
2023/06/27 08:48:20;;;;;;;8.10;3.88;;;;;;;26.79;48.84;99167.31;4971072;28;20030;-92
2023/06/27 08:50:48;;;;;;;5.45;2.92;;;;;;;26.83;46.61;99169.28;5001390;28;20024;-90
2023/06/27 08:53:17;;;;;;;6.70;3.65;;;;;;;27.06;47.59;99169.88;4974621;28;20046;-92
2023/06/27 08:59:12;;;;;;;5.63;3.40;;;;;;;27.31;44.68;99164.50;4949876;29;20114;-91
2023/06/27 09:01:38;;;;;;;9.50;3.33;;;;;;;27.47;45.55;99180.00;4924540;29;20086;-93
2023/06/27 09:04:46;;;;;;;;;;;;;;;;;;;;;
2023/06/27 09:11:10;;;;;;;12.23;3.90;;;;;;;27.07;45.84;99160.38;4909231;29;20043;-94
2023/06/27 09:13:37;;;;;;;5.68;3.30;;;;;;;27.02;46.29;99149.69;4914060;29;20584;-94
2023/06/27 09:16:04;;;;;;;6.40;3.65;;;;;;;26.94;47.21;99150.81;4952738;28;20042;-95
2023/06/27 09:18:33;;;;;;;11.15;5.32;;;;;;;26.99;47.40;99178.09;4966535;28;20034;-95
2023/06/27 09:21:38;;;;;;;7.50;4.45;;;;;;;26.89;47.31;99159.47;4946044;29;20045;-94
2023/06/27 09:24:12;;;;;;;6.53;3.58;;;;;;;27.02;47.19;99171.81;4956871;29;20043;-96
2023/06/27 09:26:49;;;;;;;8.65;3.50;;;;;;;27.01;46.69;99156.38;4958436;29;20023;-96
2023/06/27 09:30:21;;;;;;;;;;;;;;;;;;;;;
2023/06/27 09:37:24;;;;;;;6.03;3.08;;;;;;;27.51;45.00;99151.16;5025700;23;20216;-91
2023/06/27 09:39:50;;;;;;;5.15;2.97;;;;;;;27.45;45.46;99144.41;4976433;28;20042;-90
2023/06/27 09:42:16;;;;;;;8.82;3.42;;;;;;;27.52;45.51;99155.53;4964468;28;20097;-89
2023/06/27 09:44:41;;;;;;;6.10;3.00;;;;;;;27.61;46.67;99150.41;4967938;28;20029;-91
2023/06/27 09:47:29;;;;;;;3.40;2.45;;;;;;;27.76;45.14;99136.63;4963184;28;20029;-93
2023/06/27 09:49:55;;;;;;;3.92;2.40;;;;;;;28.03;42.90;99159.28;4975208;28;20134;-93
2023/06/27 09:52:20;;;;;;;4.10;2.63;;;;;;;28.17;43.31;99155.75;4954955;28;20727;-92
2023/06/27 09:54:49;;;;;;;4.68;2.47;;;;;;;28.15;41.24;99152.59;4948857;28;20034;-92
2023/06/27 09:57:21;;;;;;;4.50;2.50;;;;;;;28.19;41.78;99140.34;4962383;28;20052;-88
2023/06/27 10:03:21;;;;;;;;;;;;;;;;;;;;;
2023/06/27 10:06:04;;;;;;;3.20;2.50;;;;;;;28.50;41.20;99142.78;4965855;28;20090;-91
2023/06/27 10:08:35;;;;;;;3.55;2.50;;;;;;;28.77;40.08;99163.34;4957836;28;20097;-89
2023/06/27 10:11:06;;;;;;;;;;;;;;;28.96;41.45;99159.38;4970141;28;20022;-90
2023/06/27 10:13:56;;;;;;;4.43;2.40;;;;;;;29.09;40.46;99159.75;4990071;28;19914;-91
2023/06/27 10:16:24;;;;;;;4.15;2.60;;;;;;;29.19;40.22;99139.53;4984502;28;20356;-90
2023/06/27 10:18:53;;;;;;;8.05;4.05;;;;;;;29.31;40.74;99145.88;4950951;28;20030;-90
2023/06/27 10:21:48;;;;;;;5.45;2.80;;;;;;;29.24;39.41;99159.75;4937940;28;20049;-90
2023/06/27 10:24:13;;;;;;;4.18;2.70;;;;;;;29.48;39.07;99156.09;4976909;28;20081;-90
2023/06/27 10:30:35;;;;;;;4.43;2.30;;;;;;;29.69;34.94;99144.13;4918510;29;20096;-93
2023/06/27 10:33:18;;;;;;;5.75;2.00;;;;;;;29.86;33.77;99144.47;4924109;29;20126;-88
2023/06/27 10:35:51;;;;;;;4.97;2.00;;;;;;;29.66;33.77;99138.59;4966911;28;20082;-90
2023/06/27 10:38:39;;;;;;;6.10;3.40;;;;;;;29.50;36.65;99112.09;4958619;28;20093;-89
2023/06/27 10:41:09;;;;;;;6.32;2.20;;;;;;;29.87;36.71;99135.75;4954184;28;20034;-96
2023/06/27 10:43:38;;;;;;;5.07;2.10;;;;;;;29.95;34.25;99114.28;4989405;28;20041;-96
2023/06/27 10:46:31;;;;;;;4.25;2.20;;;;;;;29.98;33.33;99116.25;4974148;28;20127;-96
2023/06/27 10:49:02;;;;;;;3.20;2.38;;;;;;;30.06;32.05;99112.22;4965691;28;20032;-96
2023/06/27 10:51:47;;;;;;;4.72;2.15;;;;;;;30.36;34.74;99119.97;4953385;28;20039;-93
2023/06/27 10:54:16;;;;;;;9.88;6.22;;;;;;;30.60;34.53;99128.50;4966494;28;20121;-92
2023/06/27 10:56:46;;;;;;;11.70;8.50;;;;;;;30.54;34.66;99122.59;4952216;28;20115;-93
2023/06/27 10:59:22;;;;;;;4.15;2.10;;;;;;;30.45;34.57;99121.50;4948699;29;20580;-93
2023/06/27 11:02:02;;;;;;;3.72;2.85;;;;;;;30.45;35.07;99116.72;4947143;28;20054;-94
2023/06/27 11:04:41;;;;;;;4.40;2.33;;;;;;;30.35;36.39;99114.81;4951524;28;20035;-94
2023/06/27 11:07:07;;;;;;;2.78;2.20;;;;;;;30.00;35.92;99105.53;4958008;28;20054;-88
2023/06/27 11:09:35;;;;;;;4.10;2.55;;;;;;;30.07;36.30;99101.91;4949497;28;20594;-89
2023/06/27 11:12:21;;;;;;;3.53;2.60;;;;;;;29.90;36.76;99103.59;4946962;28;20086;-95
2023/06/27 11:14:51;;;;;;;4.60;2.47;;;;;;;29.92;37.23;99096.44;4940289;29;20048;-96
2023/06/27 11:17:18;;;;;;;2.92;2.08;;;;;;;29.98;37.42;99091.25;4956255;28;20039;-95
2023/06/27 11:19:48;;;;;;;4.70;2.58;;;;;;;29.96;37.98;99101.97;4949823;28;20039;-93
2023/06/27 11:22:34;;;;;;;4.20;2.35;;;;;;;29.99;38.24;99099.19;4950764;28;20035;-92
2023/06/27 11:25:24;;;;;;;;;;;;;;;;;;;;;
2023/06/27 11:27:56;;;;;;;4.05;2.13;;;;;;;29.94;38.66;99082.94;4958972;28;20121;-96
2023/06/27 11:34:00;;;;;;;3.58;2.40;;;;;;;30.28;37.31;99081.50;4991812;28;20603;-95
2023/06/27 11:36:30;;;;;;;3.50;2.30;;;;;;;30.36;37.37;99086.66;4977748;28;20061;-95
2023/06/27 11:38:56;;;;;;;3.30;2.47;;;;;;;29.94;37.79;99071.84;4962686;28;20042;-93
2023/06/27 11:41:28;;;;;;;3.97;2.65;;;;;;;29.85;37.50;99067.94;4974520;28;20106;-94
2023/06/27 11:44:01;;;;;;;4.40;2.17;;;;;;;29.75;35.06;99064.03;4953215;28;20026;-95
2023/06/27 11:46:57;;;;;;;3.35;2.20;;;;;;;29.83;36.90;99085.00;4949218;28;20093;-94
2023/06/27 11:49:23;;;;;;;4.28;2.38;;;;;;;29.53;39.51;99072.47;4966053;28;20081;-94
2023/06/27 11:51:57;;;;;;;4.55;2.30;;;;;;;29.39;40.12;99067.78;4951617;28;20569;-93
2023/06/27 11:54:23;;;;;;;3.65;2.25;;;;;;;29.36;38.39;99068.56;4965075;28;20049;-94
2023/06/27 11:56:50;;;;;;;3.03;2.40;;;;;;;29.51;37.98;99072.09;4967595;28;20035;-94
2023/06/27 11:59:29;;;;;;;3.33;2.47;;;;;;;29.46;39.08;99055.84;4969932;28;20057;-93
2023/06/27 12:05:45;;;;;;;6.05;2.40;;;;;;;29.34;38.26;99057.06;4994725;28;20515;-94
2023/06/27 12:08:10;;;;;;;3.10;2.40;;;;;;;29.29;39.81;99057.50;4971009;28;20053;-95
2023/06/27 12:10:56;;;;;;;3.35;2.40;;;;;;;28.95;40.18;99071.88;4968391;28;20034;-94
2023/06/27 12:13:33;;;;;;;4.13;2.30;;;;;;;28.87;39.99;99059.22;4968842;28;20026;-94
2023/06/27 12:15:59;;;;;;;8.00;2.38;;;;;;;28.81;40.49;99058.81;4972732;28;20085;-95
2023/06/27 12:18:34;;;;;;;2.90;2.30;;;;;;;28.69;40.40;99048.16;4971396;28;20022;-95
2023/06/27 12:21:13;;;;;;;3.97;3.00;;;;;;;28.76;40.99;99039.84;4970116;28;20031;-91
2023/06/27 12:23:41;;;;;;;8.20;2.40;;;;;;;28.78;39.44;99045.78;4968980;28;20045;-90
2023/06/27 12:26:11;;;;;;;4.00;2.60;;;;;;;28.89;39.50;99045.75;4952029;28;20023;-89